Time;durP1;ratioP1;P1;durP2;ratioP2;P2;SDS_P1;SDS_P2;PMS_P1;PMS_P2;Temp;Humidity;BMP_temperature;BMP_pressure;BME280_temperature;BME280_humidity;BME280_pressure;Samples;Min_cycle;Max_cycle;Signal;HPM_P1;HPM_P2
2022/08/09 00:00:00;;;;;;;8.40;5.50;;;;;;;22.03;80.87;97598.00;5027688;28;20113;-78
2022/08/09 00:02:26;;;;;;;8.88;5.45;;;;;;;22.02;81.07;97592.72;5038925;28;20104;-78
2022/08/09 00:04:51;;;;;;;12.02;5.47;;;;;;;22.05;80.97;97593.25;5027741;28;20057;-78
2022/08/09 00:07:17;;;;;;;9.25;5.43;;;;;;;22.08;80.55;97595.66;5030512;28;20037;-77
2022/08/09 00:09:43;;;;;;;18.42;5.65;;;;;;;22.03;80.97;97606.16;5033735;28;20036;-78
2022/08/09 00:12:09;;;;;;;12.10;5.95;;;;;;;22.02;81.29;97600.91;5028417;28;20037;-78
2022/08/09 00:14:35;;;;;;;9.93;5.22;;;;;;;22.08;80.77;97598.38;5022905;28;20069;-77
2022/08/09 00:17:01;;;;;;;13.48;5.43;;;;;;;21.94;81.67;97604.44;5014962;28;20515;-78
2022/08/09 00:19:27;;;;;;;9.52;4.90;;;;;;;22.02;81.63;97606.34;5047523;28;20033;-78
2022/08/09 00:21:52;;;;;;;9.50;6.25;;;;;;;21.96;83.76;97599.69;5047167;28;20044;-78
2022/08/09 00:24:18;;;;;;;7.88;5.88;;;;;;;22.03;82.38;97602.59;5040014;28;20036;-78
2022/08/09 00:26:43;;;;;;;10.93;6.13;;;;;;;21.99;82.46;97599.38;5045728;28;20051;-78
2022/08/09 00:29:09;;;;;;;50.22;30.90;;;;;;;21.97;82.92;97576.88;5030487;28;20074;-78
2022/08/09 00:31:35;;;;;;;9.10;5.50;;;;;;;21.97;82.20;97586.91;5046149;28;20029;-78
2022/08/09 00:34:00;;;;;;;7.82;5.28;;;;;;;22.07;80.82;97585.75;5022934;28;20025;-78
2022/08/09 00:36:26;;;;;;;10.98;5.88;;;;;;;21.99;81.68;97582.16;5028086;28;20040;-78
2022/08/09 00:38:51;;;;;;;128.15;83.45;;;;;;;21.93;83.47;97578.19;5010403;28;20521;-78
2022/08/09 00:41:21;;;;;;;21.13;6.65;;;;;;;21.89;83.58;97576.84;5026844;28;20033;-79
2022/08/09 00:43:49;;;;;;;61.25;7.28;;;;;;;21.94;84.31;97579.06;5018899;28;20392;-78
2022/08/09 00:46:15;;;;;;;9.43;6.05;;;;;;;21.85;87.33;97589.03;5010354;28;20515;-78
2022/08/09 00:48:41;;;;;;;9.32;5.72;;;;;;;21.63;87.87;97592.34;5043129;28;20071;-78
2022/08/09 00:51:06;;;;;;;10.45;5.90;;;;;;;21.55;88.78;97592.31;5023044;28;20402;-78
2022/08/09 00:53:34;;;;;;;7.40;5.70;;;;;;;21.55;90.26;97593.16;5046369;28;20025;-78
2022/08/09 00:56:00;;;;;;;9.77;6.03;;;;;;;21.55;91.25;97598.63;5030230;28;20045;-78
2022/08/09 00:58:26;;;;;;;14.63;6.82;;;;;;;21.39;92.47;97605.81;5037812;28;20101;-78
2022/08/09 01:00:55;;;;;;;10.50;5.97;;;;;;;21.38;93.07;97598.69;5044943;28;20668;-78
2022/08/09 01:03:39;;;;;;;8.45;5.88;;;;;;;21.32;92.68;97604.78;5032090;28;20040;-78
2022/08/09 01:06:09;;;;;;;11.88;5.85;;;;;;;21.28;91.79;97608.81;5026447;28;20070;-78
2022/08/09 01:09:02;;;;;;;7.65;5.75;;;;;;;21.09;93.19;97620.75;5026436;28;20028;-78
2022/08/09 01:11:51;;;;;;;10.50;6.65;;;;;;;21.08;94.75;97624.44;5044287;28;20059;-78
2022/08/09 01:14:59;;;;;;;9.95;6.22;;;;;;;20.97;94.89;97622.84;5046349;28;20021;-78
2022/08/09 01:17:39;;;;;;;11.73;6.68;;;;;;;20.92;94.85;97625.19;5063216;28;20487;-78
2022/08/09 01:20:20;;;;;;;14.30;6.40;;;;;;;20.87;95.23;97622.09;5016453;28;20512;-78
2022/08/09 01:22:54;;;;;;;9.52;6.30;;;;;;;20.76;96.28;97622.34;5029587;28;20025;-78
2022/08/09 01:25:26;;;;;;;14.07;6.88;;;;;;;20.82;96.59;97623.56;5041011;28;20030;-78
2022/08/09 01:27:53;;;;;;;13.60;6.80;;;;;;;20.72;97.24;97612.78;5037235;28;20082;-78
2022/08/09 01:30:22;;;;;;;13.77;7.28;;;;;;;20.75;96.75;97617.91;5029511;28;20043;-78
2022/08/09 01:32:50;;;;;;;11.00;6.65;;;;;;;20.73;96.49;97614.50;5044528;28;20028;-78
2022/08/09 01:35:21;;;;;;;18.77;7.00;;;;;;;20.74;97.91;97616.19;5032187;28;20037;-78
2022/08/09 01:37:49;;;;;;;12.90;5.90;;;;;;;20.68;98.21;97616.81;5034747;28;20033;-78
2022/08/09 01:40:15;;;;;;;11.35;6.05;;;;;;;20.71;98.71;97607.47;5033688;28;20264;-78
2022/08/09 01:42:41;;;;;;;14.60;7.43;;;;;;;20.72;100.00;97606.47;5025904;28;20025;-78
2022/08/09 01:45:07;;;;;;;11.20;6.43;;;;;;;20.65;100.00;97598.09;5034434;28;20029;-78
2022/08/09 01:47:33;;;;;;;9.02;6.22;;;;;;;20.60;100.00;97603.16;5026299;28;20108;-78
2022/08/09 01:50:02;;;;;;;9.65;6.50;;;;;;;20.62;100.00;97606.56;5037234;28;20055;-78
2022/08/09 01:52:29;;;;;;;9.38;5.93;;;;;;;20.54;100.00;97606.50;5040309;28;20021;-78
2022/08/09 01:54:57;;;;;;;11.85;6.72;;;;;;;20.57;100.00;97608.91;5012120;28;20453;-78
2022/08/09 01:57:37;;;;;;;9.77;6.78;;;;;;;20.51;100.00;97598.66;5026022;28;20116;-78
2022/08/09 02:00:05;;;;;;;9.35;6.43;;;;;;;20.55;100.00;97603.59;5009879;28;20037;-78
2022/08/09 02:02:32;;;;;;;9.18;6.45;;;;;;;20.51;100.00;97598.66;5045834;28;20021;-78
2022/08/09 02:05:04;;;;;;;14.27;6.50;;;;;;;20.52;100.00;97601.19;5045676;28;20113;-78
2022/08/09 02:07:31;;;;;;;12.93;6.15;;;;;;;20.47;100.00;97594.53;5023778;28;20044;-78
2022/08/09 02:10:00;;;;;;;10.18;6.55;;;;;;;20.36;100.00;97611.06;5009317;28;20093;-78
2022/08/09 02:12:27;;;;;;;8.88;6.90;;;;;;;20.18;100.00;97608.28;5022122;28;20033;-78
2022/08/09 02:14:54;;;;;;;11.02;7.22;;;;;;;20.06;100.00;97603.25;5032248;28;20037;-78
2022/08/09 02:17:23;;;;;;;9.93;6.82;;;;;;;20.10;100.00;97604.63;5012807;28;20404;-77
2022/08/09 02:19:49;;;;;;;17.65;7.40;;;;;;;20.05;100.00;97590.66;5029199;28;20055;-77
2022/08/09 02:22:31;;;;;;;9.68;7.07;;;;;;;19.88;100.00;97590.47;5045267;28;20065;-78
2022/08/09 02:24:59;;;;;;;12.77;7.38;;;;;;;19.79;100.00;97585.94;5012357;28;20082;-77
2022/08/09 02:27:28;;;;;;;11.93;7.55;;;;;;;19.81;100.00;97594.78;5024397;28;20479;-77
2022/08/09 02:29:54;;;;;;;28.40;7.53;;;;;;;19.73;100.00;97583.84;5040935;28;20037;-78
2022/08/09 02:32:23;;;;;;;10.00;7.78;;;;;;;19.63;100.00;97585.72;5037030;28;20048;-78
2022/08/09 02:34:53;;;;;;;13.73;8.10;;;;;;;19.56;100.00;97595.50;5037117;28;20039;-77
2022/08/09 02:37:21;;;;;;;12.75;7.55;;;;;;;19.49;100.00;97591.66;5023451;28;20113;-77
2022/08/09 02:39:56;;;;;;;16.33;7.95;;;;;;;19.58;100.00;97587.19;5048687;28;20073;-78
2022/08/09 02:42:27;;;;;;;14.07;7.97;;;;;;;19.58;100.00;97601.63;5028762;28;20047;-77
2022/08/09 02:44:58;;;;;;;18.23;8.18;;;;;;;19.52;100.00;97588.66;5036206;28;20052;-77
2022/08/09 02:47:24;;;;;;;14.80;8.15;;;;;;;19.56;100.00;97594.63;5031884;28;20415;-78
2022/08/09 02:50:08;;;;;;;13.00;8.10;;;;;;;19.58;100.00;97603.47;5048432;28;20025;-77
2022/08/09 02:52:40;;;;;;;11.60;7.78;;;;;;;19.58;100.00;97603.47;5048505;28;20419;-78
2022/08/09 02:55:08;;;;;;;11.13;7.25;;;;;;;19.56;100.00;97598.22;5039387;28;20190;-77
2022/08/09 02:57:34;;;;;;;14.43;8.05;;;;;;;19.63;100.00;97606.59;5041389;28;20056;-77
2022/08/09 03:00:00;;;;;;;12.23;7.57;;;;;;;19.63;100.00;97601.16;5031763;28;20036;-78
2022/08/09 03:02:27;;;;;;;11.90;7.38;;;;;;;19.54;100.00;97597.50;5023564;28;20021;-78
2022/08/09 03:04:53;;;;;;;12.02;8.60;;;;;;;19.56;100.00;97590.06;5048174;28;20072;-78
2022/08/09 03:07:21;;;;;;;12.32;8.45;;;;;;;19.64;100.00;97614.59;5048257;28;20440;-78
2022/08/09 03:09:48;;;;;;;23.60;8.52;;;;;;;19.65;100.00;97616.31;5023527;28;20033;-78
2022/08/09 03:12:14;;;;;;;10.30;7.68;;;;;;;19.60;100.00;97602.31;5039742;28;20032;-77
2022/08/09 03:14:40;;;;;;;15.52;8.00;;;;;;;19.61;100.00;97601.31;5036276;28;20052;-78
2022/08/09 03:17:06;;;;;;;12.70;8.98;;;;;;;19.61;100.00;97605.88;5028207;28;20082;-78
2022/08/09 03:19:32;;;;;;;15.20;9.10;;;;;;;19.60;100.00;97607.75;5028171;28;20037;-77
2022/08/09 03:21:59;;;;;;;15.75;8.77;;;;;;;19.56;100.00;97610.94;5018867;28;20125;-77
2022/08/09 03:24:24;;;;;;;45.85;10.55;;;;;;;19.47;100.00;97615.38;5031086;28;20025;-77
2022/08/09 03:26:50;;;;;;;16.17;9.30;;;;;;;19.45;100.00;97617.38;5033889;28;20081;-78
2022/08/09 03:29:17;;;;;;;17.58;8.90;;;;;;;19.38;100.00;97611.66;5011331;28;20029;-78
2022/08/09 03:31:43;;;;;;;16.08;9.27;;;;;;;19.34;100.00;97612.97;5011553;28;20554;-79
2022/08/09 03:34:09;;;;;;;20.77;10.48;;;;;;;19.40;100.00;97622.41;5044390;28;20049;-80
2022/08/09 03:36:35;;;;;;;23.85;11.13;;;;;;;19.36;100.00;97621.81;5028160;28;20033;-78
2022/08/09 03:39:02;;;;;;;22.35;9.90;;;;;;;19.33;100.00;97630.25;5043345;28;20029;-78
2022/08/09 03:41:28;;;;;;;12.73;9.10;;;;;;;19.27;100.00;97628.13;5011962;28;20029;-78
2022/08/09 03:43:54;;;;;;;17.85;9.68;;;;;;;19.23;100.00;97640.25;5033726;28;20025;-78
2022/08/09 03:46:19;;;;;;;14.27;9.95;;;;;;;19.20;100.00;97621.56;5013387;28;20025;-79
2022/08/09 03:48:49;;;;;;;16.70;9.50;;;;;;;19.22;100.00;97629.56;5011371;28;20026;-79
2022/08/09 03:51:14;;;;;;;15.18;8.98;;;;;;;19.22;100.00;97640.41;5027616;28;20377;-78
2022/08/09 03:53:40;;;;;;;19.63;10.23;;;;;;;19.10;100.00;97641.59;5039843;28;20028;-79
2022/08/09 03:56:07;;;;;;;14.40;9.93;;;;;;;19.05;100.00;97635.72;5015337;28;20038;-79
2022/08/09 03:58:33;;;;;;;18.27;9.50;;;;;;;19.02;100.00;97633.28;5030096;28;20033;-79
2022/08/09 04:00:59;;;;;;;16.35;9.98;;;;;;;19.00;100.00;97640.72;5047550;28;20051;-78
2022/08/09 04:03:25;;;;;;;21.25;9.73;;;;;;;18.95;100.00;97633.88;5030786;28;20103;-79
2022/08/09 04:05:51;;;;;;;15.45;9.93;;;;;;;19.19;100.00;97646.13;5030718;28;20051;-79
2022/08/09 04:08:16;;;;;;;13.07;9.77;;;;;;;19.25;100.00;97659.09;5014110;28;20045;-79
2022/08/09 04:10:42;;;;;;;14.10;9.10;;;;;;;19.22;100.00;97648.56;5010943;28;20053;-78
2022/08/09 04:13:11;;;;;;;13.30;8.65;;;;;;;19.31;100.00;97647.66;5027305;28;20030;-79
2022/08/09 04:15:37;;;;;;;23.55;9.25;;;;;;;19.46;100.00;97655.22;5011091;28;20449;-78
2022/08/09 04:18:04;;;;;;;15.77;9.80;;;;;;;19.54;100.00;97651.75;5035740;28;20022;-79
2022/08/09 04:20:30;;;;;;;17.27;9.13;;;;;;;19.64;100.00;97644.44;5028579;28;20039;-79
2022/08/09 04:22:57;;;;;;;13.55;9.18;;;;;;;19.86;100.00;97648.66;5041997;28;20476;-77
2022/08/09 04:25:22;;;;;;;16.63;9.63;;;;;;;20.06;100.00;97649.41;5043725;28;20568;-77
2022/08/09 04:27:48;;;;;;;20.10;10.05;;;;;;;20.34;100.00;97651.97;5030432;28;20025;-77
2022/08/09 04:30:16;;;;;;;25.73;15.60;;;;;;;20.44;100.00;97660.91;5022325;28;20563;-79
2022/08/09 04:32:42;;;;;;;44.95;29.23;;;;;;;20.30;100.00;97657.88;5043862;28;20372;-78
2022/08/09 04:35:09;;;;;;;38.70;24.60;;;;;;;20.38;100.00;97666.09;5033336;28;20033;-80
2022/08/09 04:37:36;;;;;;;33.30;13.05;;;;;;;20.26;100.00;97656.47;5030495;28;20061;-78
2022/08/09 04:40:03;;;;;;;23.55;12.30;;;;;;;20.33;100.00;97665.72;5046376;28;20089;-77
2022/08/09 04:42:30;;;;;;;18.67;10.38;;;;;;;20.24;100.00;97656.56;5046576;28;20037;-78
2022/08/09 04:44:56;;;;;;;25.00;12.90;;;;;;;20.25;100.00;97669.16;5028600;28;20504;-78
2022/08/09 04:47:23;;;;;;;20.45;10.77;;;;;;;20.28;100.00;97668.03;5026998;28;20040;-77
2022/08/09 04:49:49;;;;;;;21.02;12.65;;;;;;;20.35;100.00;97669.13;5027058;28;20029;-77
2022/08/09 04:52:14;;;;;;;17.15;12.43;;;;;;;20.43;100.00;97670.06;5021856;28;20375;-78
2022/08/09 04:54:40;;;;;;;19.83;12.93;;;;;;;20.61;100.00;97678.22;5021714;28;20798;-79
2022/08/09 04:57:06;;;;;;;19.63;10.80;;;;;;;20.64;100.00;97674.38;5046368;28;20044;-79
2022/08/09 04:59:31;;;;;;;22.77;13.40;;;;;;;20.70;100.00;97680.06;5046406;28;20036;-78
2022/08/09 05:01:57;;;;;;;57.03;38.85;;;;;;;20.74;100.00;97681.44;5037874;28;20051;-79
2022/08/09 05:04:22;;;;;;;26.17;14.55;;;;;;;20.72;100.00;97677.16;5029650;28;20045;-79
2022/08/09 05:06:48;;;;;;;68.50;47.88;;;;;;;20.78;100.00;97685.56;5030315;28;20059;-78
2022/08/09 05:09:14;;;;;;;13.13;9.32;;;;;;;20.76;100.00;97678.59;5036072;28;20472;-79
2022/08/09 05:11:39;;;;;;;14.70;10.45;;;;;;;20.72;100.00;97682.59;5039977;28;20391;-78
2022/08/09 05:14:05;;;;;;;16.42;9.55;;;;;;;20.74;100.00;97691.44;5036637;28;20120;-79
2022/08/09 05:16:31;;;;;;;18.35;9.43;;;;;;;20.81;100.00;97687.97;5032249;28;20030;-79
2022/08/09 05:18:56;;;;;;;15.88;10.27;;;;;;;20.90;100.00;97687.03;5024236;28;20054;-79
2022/08/09 05:21:22;;;;;;;16.02;10.75;;;;;;;20.98;100.00;97687.09;5040808;28;20036;-79
2022/08/09 05:23:48;;;;;;;20.45;12.02;;;;;;;21.14;100.00;97688.28;5038744;28;20022;-80
2022/08/09 05:26:13;;;;;;;12.68;8.30;;;;;;;21.14;100.00;97691.00;5037423;28;20017;-80
2022/08/09 05:28:39;;;;;;;11.77;8.52;;;;;;;21.25;100.00;97691.63;5036801;28;20541;-80
2022/08/09 05:31:04;;;;;;;15.15;9.35;;;;;;;21.46;100.00;97694.88;5011598;28;20068;-80
2022/08/09 05:33:30;;;;;;;13.35;8.52;;;;;;;21.89;100.00;97696.69;5025655;28;20081;-79
2022/08/09 05:35:55;;;;;;;11.63;8.38;;;;;;;23.11;98.11;97690.63;5029339;28;20149;-79
2022/08/09 05:38:21;;;;;;;11.60;8.27;;;;;;;25.47;80.92;97695.06;5020983;28;20029;-80
2022/08/09 05:40:47;;;;;;;14.05;7.13;;;;;;;27.53;69.98;97684.81;5029345;28;20032;-79
2022/08/09 05:43:12;;;;;;;12.57;7.25;;;;;;;28.90;62.27;97690.38;5029010;28;20041;-80
2022/08/09 05:45:38;;;;;;;17.95;10.65;;;;;;;30.19;56.72;97676.09;5044899;28;20025;-80
2022/08/09 05:48:04;;;;;;;21.38;13.38;;;;;;;31.36;53.16;97678.63;5010290;28;20055;-81
2022/08/09 05:50:29;;;;;;;22.50;14.38;;;;;;;32.18;49.47;97672.88;5033695;28;20432;-78
2022/08/09 05:52:55;;;;;;;28.27;11.48;;;;;;;32.26;49.01;97675.38;5026934;28;20041;-79
2022/08/09 05:55:21;;;;;;;70.07;50.75;;;;;;;32.76;47.45;97667.78;5036398;28;20028;-80
2022/08/09 05:57:47;;;;;;;14.23;7.88;;;;;;;32.86;46.50;97672.75;5019265;28;20515;-80
2022/08/09 06:00:13;;;;;;;19.40;7.85;;;;;;;33.33;45.56;97673.84;5032293;28;20036;-80
2022/08/09 06:02:39;;;;;;;15.27;7.72;;;;;;;33.69;44.40;97666.25;5024789;28;20029;-80
2022/08/09 06:05:06;;;;;;;25.33;8.45;;;;;;;34.70;42.67;97665.13;5012372;28;20042;-80
2022/08/09 06:07:31;;;;;;;16.95;6.90;;;;;;;33.97;42.99;97671.13;5029187;28;20026;-80
2022/08/09 06:09:57;;;;;;;22.10;7.20;;;;;;;33.49;43.67;97668.50;5029171;28;20025;-80
2022/08/09 06:12:22;;;;;;;19.17;8.18;;;;;;;34.26;42.43;97661.03;5040195;28;20092;-78
2022/08/09 06:14:48;;;;;;;18.70;7.63;;;;;;;33.82;43.39;97669.91;5049077;28;20029;-79
2022/08/09 06:17:13;;;;;;;17.75;7.40;;;;;;;34.90;41.24;97656.34;5032175;28;20071;-80
2022/08/09 06:19:39;;;;;;;12.32;7.28;;;;;;;35.46;40.29;97661.94;5037984;28;20085;-79
2022/08/09 06:22:05;;;;;;;13.07;7.63;;;;;;;35.61;39.88;97659.47;5045738;28;20037;-78
2022/08/09 06:24:31;;;;;;;25.58;7.63;;;;;;;36.44;38.25;97653.03;5044802;28;20097;-79
2022/08/09 06:26:57;;;;;;;28.30;8.20;;;;;;;37.46;36.59;97661.63;5047202;28;20021;-80
2022/08/09 06:29:23;;;;;;;18.23;7.63;;;;;;;36.72;37.46;97641.75;5028820;28;20061;-80
2022/08/09 06:31:48;;;;;;;16.17;6.90;;;;;;;37.05;37.09;97657.50;5037415;28;20032;-80
2022/08/09 06:34:14;;;;;;;15.40;6.65;;;;;;;36.59;37.31;97650.47;5032271;28;20089;-80
2022/08/09 06:36:39;;;;;;;13.65;6.45;;;;;;;35.57;38.56;97652.69;5048243;28;20017;-80
2022/08/09 06:39:07;;;;;;;10.73;6.97;;;;;;;35.30;39.87;97658.03;5021358;28;20025;-79
2022/08/09 06:41:33;;;;;;;19.23;7.32;;;;;;;36.64;37.82;97647.75;5012295;28;20029;-79
2022/08/09 06:43:59;;;;;;;9.73;5.95;;;;;;;36.98;36.68;97642.88;5028614;28;20026;-79
2022/08/09 06:46:24;;;;;;;8.23;6.57;;;;;;;36.30;37.21;97646.97;5029407;28;20017;-80
2022/08/09 06:48:50;;;;;;;14.10;6.88;;;;;;;36.62;37.36;97638.81;5044592;28;20025;-78
2022/08/09 06:51:15;;;;;;;10.70;5.82;;;;;;;37.68;35.36;97644.81;5028392;28;20021;-78
2022/08/09 06:53:41;;;;;;;13.93;6.43;;;;;;;38.08;34.99;97630.38;5022914;28;20058;-79
2022/08/09 06:56:07;;;;;;;10.15;6.47;;;;;;;37.73;35.22;97639.25;5031641;28;20035;-78
2022/08/09 06:58:33;;;;;;;20.80;5.90;;;;;;;38.01;34.96;97635.34;5031023;28;20055;-79
2022/08/09 07:00:59;;;;;;;17.55;12.75;;;;;;;37.77;34.99;97630.09;5030933;28;20060;-78
2022/08/09 07:03:25;;;;;;;10.50;6.25;;;;;;;38.08;34.32;97624.78;5028366;28;20029;-79
2022/08/09 07:05:51;;;;;;;8.02;6.47;;;;;;;38.85;33.74;97617.47;5028085;28;20053;-79
2022/08/09 07:08:17;;;;;;;18.05;6.95;;;;;;;39.39;32.33;97617.91;5011707;28;20087;-80
2022/08/09 07:10:43;;;;;;;24.20;5.97;;;;;;;39.85;31.68;97606.75;5011828;28;20029;-80
2022/08/09 07:13:08;;;;;;;8.85;5.40;;;;;;;38.88;32.46;97619.72;5028219;28;20082;-79
2022/08/09 07:15:34;;;;;;;17.67;8.65;;;;;;;38.28;33.36;97608.97;5036394;28;20025;-80
2022/08/09 07:18:00;;;;;;;7.60;5.25;;;;;;;38.60;32.69;97608.06;5041001;28;20024;-80
2022/08/09 07:20:25;;;;;;;6.60;5.90;;;;;;;38.33;33.32;97609.00;5048024;28;20029;-80
2022/08/09 07:22:51;;;;;;;8.07;5.88;;;;;;;37.87;33.18;97618.16;5036274;28;20449;-79
2022/08/09 07:25:18;;;;;;;15.30;6.40;;;;;;;37.18;34.66;97622.78;5045923;28;20384;-80
2022/08/09 07:27:43;;;;;;;13.25;6.57;;;;;;;37.67;33.88;97618.84;5015479;28;20030;-79
2022/08/09 07:30:12;;;;;;;13.23;7.20;;;;;;;39.21;31.59;97615.59;5023872;28;20112;-80
2022/08/09 07:32:39;;;;;;;12.20;6.75;;;;;;;40.74;29.75;97615.31;5016623;28;20036;-81
2022/08/09 07:35:07;;;;;;;11.07;6.03;;;;;;;40.56;29.58;97615.97;5031124;28;20113;-80
2022/08/09 07:37:32;;;;;;;9.95;5.78;;;;;;;40.79;29.35;97600.44;5026817;28;20535;-81
2022/08/09 07:39:58;;;;;;;13.00;5.13;;;;;;;40.52;29.29;97607.25;5019563;28;20030;-80
2022/08/09 07:42:23;;;;;;;11.52;4.80;;;;;;;41.13;28.29;97609.03;5044492;28;20078;-81
2022/08/09 07:44:50;;;;;;;11.35;5.20;;;;;;;41.32;28.86;97610.00;5026686;28;20480;-80
2022/08/09 07:47:16;;;;;;;11.07;4.80;;;;;;;41.23;28.59;97606.13;5033562;28;20412;-79
2022/08/09 07:49:42;;;;;;;6.35;5.10;;;;;;;41.10;29.02;97608.44;5028623;28;20029;-80
2022/08/09 07:52:07;;;;;;;7.32;4.93;;;;;;;41.04;29.10;97604.00;5035794;28;20033;-82
2022/08/09 07:54:33;;;;;;;14.68;5.82;;;;;;;41.71;28.76;97612.88;5043837;28;20421;-80
2022/08/09 07:57:00;;;;;;;10.80;6.00;;;;;;;41.43;28.91;97617.28;5047441;28;20100;-80
2022/08/09 07:59:26;;;;;;;10.43;5.55;;;;;;;41.02;29.36;97609.06;5015779;28;20621;-80
2022/08/09 08:01:54;;;;;;;7.15;4.90;;;;;;;40.26;29.90;97608.44;5027459;28;20077;-80
2022/08/09 08:04:20;;;;;;;7.25;5.13;;;;;;;40.91;29.74;97612.19;5027215;28;20052;-80
2022/08/09 08:06:46;;;;;;;8.95;4.68;;;;;;;39.36;30.55;97603.63;5012092;28;20400;-80
2022/08/09 08:09:12;;;;;;;9.00;4.78;;;;;;;38.78;31.29;97597.25;5047063;28;20029;-80
2022/08/09 08:11:37;;;;;;;8.45;4.88;;;;;;;38.33;31.67;97591.41;5029879;28;20029;-80
2022/08/09 08:14:03;;;;;;;14.75;6.35;;;;;;;38.79;31.41;97598.13;5039662;27;20037;-80
2022/08/09 08:16:29;;;;;;;9.88;5.65;;;;;;;38.32;32.22;97600.91;5010849;28;20034;-80
2022/08/09 08:18:56;;;;;;;11.23;7.50;;;;;;;38.80;31.91;97600.63;5033227;28;20120;-79
2022/08/09 08:21:22;;;;;;;22.27;7.53;;;;;;;39.55;30.51;97590.75;5043028;28;20437;-80
2022/08/09 08:23:48;;;;;;;9.55;4.65;;;;;;;40.01;29.41;97588.81;5029522;28;20021;-80
2022/08/09 08:26:13;;;;;;;7.55;4.13;;;;;;;41.60;27.87;97595.22;5010810;28;20033;-80
2022/08/09 08:28:39;;;;;;;11.90;5.05;;;;;;;42.46;27.35;97598.13;5030550;28;20116;-80
2022/08/09 08:31:04;;;;;;;8.52;4.60;;;;;;;43.48;26.10;97592.91;5030373;28;20029;-80
2022/08/09 08:33:30;;;;;;;8.00;4.75;;;;;;;43.91;26.02;97593.66;5047832;28;20065;-81
2022/08/09 08:35:56;;;;;;;10.35;4.70;;;;;;;43.75;25.48;97586.56;5028406;28;20093;-80
2022/08/09 08:38:21;;;;;;;6.47;4.20;;;;;;;43.80;25.24;97578.06;5037325;28;20029;-81
2022/08/09 08:40:47;;;;;;;8.75;4.72;;;;;;;42.90;26.39;97578.19;5046462;28;20036;-81
2022/08/09 08:43:13;;;;;;;6.05;4.10;;;;;;;43.46;26.17;97578.28;5046698;28;20055;-81
2022/08/09 08:45:49;;;;;;;7.00;4.50;;;;;;;43.45;25.64;97570.13;5046620;28;20453;-81
2022/08/09 08:48:14;;;;;;;7.85;4.30;;;;;;;43.94;25.32;97563.97;5043400;28;20077;-82
2022/08/09 08:50:40;;;;;;;11.05;5.18;;;;;;;42.47;25.83;97553.94;5031043;28;20025;-80
2022/08/09 08:53:06;;;;;;;8.25;5.15;;;;;;;40.93;27.33;97560.25;5037415;28;20185;-80
2022/08/09 08:55:31;;;;;;;6.25;5.10;;;;;;;39.92;28.40;97557.72;5030034;28;20029;-81
2022/08/09 08:57:57;;;;;;;7.30;4.28;;;;;;;40.31;28.21;97543.06;5029841;28;20108;-81
2022/08/09 09:00:23;;;;;;;5.70;4.13;;;;;;;41.59;26.79;97548.59;5046463;28;20029;-81
2022/08/09 09:02:50;;;;;;;7.82;4.90;;;;;;;41.64;27.21;97554.16;5046323;28;20028;-81
2022/08/09 09:05:24;;;;;;;11.07;4.47;;;;;;;41.98;26.50;97552.19;5034774;28;20037;-80
2022/08/09 09:07:51;;;;;;;7.97;4.78;;;;;;;40.70;27.70;97549.69;5039725;28;20551;-81
2022/08/09 09:10:17;;;;;;;4.40;4.00;;;;;;;39.27;28.81;97543.66;5026096;28;20025;-80
2022/08/09 09:12:44;;;;;;;6.32;4.10;;;;;;;40.43;28.11;97536.00;5014197;28;20033;-79
2022/08/09 09:15:10;;;;;;;10.88;4.22;;;;;;;40.77;27.48;97550.19;5041183;28;20028;-80
2022/08/09 09:17:36;;;;;;;12.82;4.13;;;;;;;41.46;26.95;97533.25;5019622;28;20026;-81
2022/08/09 09:20:10;;;;;;;5.38;3.80;;;;;;;41.20;26.80;97530.88;5044075;28;20089;-80
2022/08/09 09:22:49;;;;;;;9.43;4.80;;;;;;;40.88;27.39;97536.97;5048975;28;20021;-80
2022/08/09 09:25:33;;;;;;;6.78;3.70;;;;;;;41.70;27.12;97530.50;5030439;28;20031;-80
2022/08/09 09:27:59;;;;;;;7.68;4.32;;;;;;;42.42;25.57;97514.63;5017885;28;20021;-80
2022/08/09 09:30:24;;;;;;;8.88;4.40;;;;;;;43.32;25.33;97520.97;5049743;28;20025;-80
2022/08/09 09:33:08;;;;;;;7.07;4.00;;;;;;;43.79;24.10;97508.69;5029684;28;20483;-80
2022/08/09 09:35:52;;;;;;;8.48;3.97;;;;;;;44.23;24.18;97508.16;5039255;28;20483;-80
2022/08/09 09:38:20;;;;;;;10.02;4.07;;;;;;;44.86;23.15;97504.59;5030025;28;20064;-82
2022/08/09 09:40:46;;;;;;;8.50;3.92;;;;;;;45.27;22.46;97506.19;5027952;28;20029;-80
2022/08/09 09:43:19;;;;;;;7.03;3.90;;;;;;;44.87;23.32;97504.28;5032757;28;20029;-81
2022/08/09 09:45:50;;;;;;;6.82;3.85;;;;;;;43.71;23.74;97498.09;5015710;28;20109;-81
2022/08/09 09:48:17;;;;;;;5.75;3.70;;;;;;;43.95;23.98;97493.16;5029483;28;20029;-82
2022/08/09 09:50:44;;;;;;;5.63;3.90;;;;;;;43.68;23.63;97485.47;5029597;28;20239;-82
2022/08/09 09:53:19;;;;;;;6.55;4.22;;;;;;;42.92;24.51;97484.94;5033599;28;20536;-82
2022/08/09 09:56:01;;;;;;;7.65;6.50;;;;;;;43.35;24.29;97488.56;5029730;28;20021;-82
2022/08/09 09:58:47;;;;;;;8.93;5.68;;;;;;;43.12;24.30;97477.06;5029739;28;20036;-82
2022/08/09 10:01:18;;;;;;;5.75;3.92;;;;;;;42.45;24.21;97475.47;5047312;28;20474;-80
2022/08/09 10:03:51;;;;;;;5.70;3.88;;;;;;;42.82;23.15;97469.06;5032642;28;20105;-81
2022/08/09 10:06:17;;;;;;;5.85;4.25;;;;;;;42.62;23.35;97466.53;5022512;28;20068;-81
2022/08/09 10:08:45;;;;;;;10.80;3.72;;;;;;;43.51;22.58;97470.25;5034731;28;20488;-81
2022/08/09 10:11:21;;;;;;;11.85;4.55;;;;;;;43.28;22.77;97472.03;5032641;28;20523;-81
2022/08/09 10:13:48;;;;;;;10.65;3.47;;;;;;;43.69;22.55;97458.06;5040783;28;20507;-81
2022/08/09 10:16:14;;;;;;;18.40;4.60;;;;;;;44.79;21.51;97462.66;5042221;28;20033;-82
2022/08/09 10:18:51;;;;;;;31.30;4.80;;;;;;;44.82;20.27;97455.53;5032555;28;20115;-82
2022/08/09 10:21:17;;;;;;;7.35;5.05;;;;;;;42.18;22.00;97449.09;5023883;28;20025;-80
2022/08/09 10:23:42;;;;;;;11.18;5.47;;;;;;;41.26;23.38;97454.72;5028726;28;20029;-81
2022/08/09 10:26:08;;;;;;;10.18;5.55;;;;;;;41.93;22.78;97458.63;5029184;28;20029;-81
2022/08/09 10:28:35;;;;;;;7.38;5.72;;;;;;;41.09;24.34;97460.75;5014543;28;20033;-81
2022/08/09 10:31:00;;;;;;;15.20;5.13;;;;;;;40.97;24.06;97454.69;5032243;28;20029;-81
2022/08/09 10:33:26;;;;;;;8.45;4.25;;;;;;;40.47;24.47;97441.72;5030051;28;20036;-81
2022/08/09 10:35:52;;;;;;;6.53;4.35;;;;;;;41.04;23.93;97463.59;5028854;28;20124;-80
2022/08/09 10:38:18;;;;;;;8.27;4.82;;;;;;;42.31;22.79;97453.97;5045279;28;20028;-80
2022/08/09 10:40:47;;;;;;;8.95;6.97;;;;;;;43.16;21.57;97449.94;5048260;28;20025;-81
2022/08/09 10:43:13;;;;;;;11.93;5.43;;;;;;;42.93;22.29;97447.19;5048735;28;20021;-81
2022/08/09 10:45:43;;;;;;;9.95;6.60;;;;;;;43.56;21.46;97430.72;5041558;28;20480;-81
2022/08/09 10:48:31;;;;;;;6.72;5.95;;;;;;;41.94;22.36;97434.97;5042380;28;20028;-81
2022/08/09 10:51:13;;;;;;;10.63;7.15;;;;;;;42.43;22.39;97429.88;5031690;28;20037;-81
2022/08/09 10:53:54;;;;;;;10.15;6.70;;;;;;;43.27;21.95;97439.34;5048356;28;20025;-81
2022/08/09 10:56:28;;;;;;;21.08;7.10;;;;;;;42.07;22.08;97432.28;5048321;28;20029;-81
2022/08/09 10:58:56;;;;;;;7.80;6.65;;;;;;;40.53;22.96;97431.34;5062127;28;20132;-80
2022/08/09 11:01:31;;;;;;;13.23;5.90;;;;;;;39.07;24.27;97428.84;5026585;28;20448;-80
2022/08/09 11:04:09;;;;;;;5.93;4.82;;;;;;;37.90;25.50;97422.06;5048062;28;20029;-80
2022/08/09 11:06:43;;;;;;;6.70;4.35;;;;;;;36.59;27.40;97419.03;5032902;28;20041;-80
2022/08/09 11:09:10;;;;;;;11.82;6.05;;;;;;;36.20;27.63;97415.53;5040474;28;20033;-81
2022/08/09 11:11:56;;;;;;;17.67;5.05;;;;;;;35.95;27.98;97419.91;5030314;28;20545;-80
2022/08/09 11:14:37;;;;;;;8.32;5.10;;;;;;;35.35;28.39;97427.13;5043954;28;20064;-80
2022/08/09 11:17:23;;;;;;;9.48;4.72;;;;;;;34.79;29.28;97422.56;5021443;28;20029;-80
2022/08/09 11:19:57;;;;;;;6.43;4.85;;;;;;;34.09;29.87;97416.44;5036258;28;20037;-80
2022/08/09 11:22:42;;;;;;;8.48;4.68;;;;;;;34.03;30.28;97428.53;5028407;28;20341;-80
2022/08/09 11:25:09;;;;;;;11.05;4.25;;;;;;;34.79;30.40;97422.56;5036424;28;20037;-80
2022/08/09 11:27:37;;;;;;;7.45;4.30;;;;;;;37.43;27.36;97433.19;5028524;28;20037;-80